sensor_id;sensor_type;location;lat;lon;timestamp;temperature;humidity
13798;DHT22;6970;51.340;3.240;2022-12-19T00:00:02;4.00;99.90
13798;DHT22;6970;51.340;3.240;2022-12-19T00:02:31;4.00;99.90
13798;DHT22;6970;51.340;3.240;2022-12-19T00:04:58;4.00;99.90
13798;DHT22;6970;51.340;3.240;2022-12-19T00:07:25;4.10;99.90
13798;DHT22;6970;51.340;3.240;2022-12-19T00:09:53;4.10;99.90
13798;DHT22;6970;51.340;3.240;2022-12-19T00:12:19;4.20;99.90
13798;DHT22;6970;51.340;3.240;2022-12-19T00:14:46;4.10;99.90
13798;DHT22;6970;51.340;3.240;2022-12-19T00:17:13;4.20;99.90
13798;DHT22;6970;51.340;3.240;2022-12-19T00:19:40;4.20;99.90
13798;DHT22;6970;51.340;3.240;2022-12-19T00:22:07;4.20;99.90
13798;DHT22;6970;51.340;3.240;2022-12-19T00:24:37;4.20;99.90
13798;DHT22;6970;51.340;3.240;2022-12-19T00:27:03;4.30;99.90
13798;DHT22;6970;51.340;3.240;2022-12-19T00:29:30;4.30;99.90
13798;DHT22;6970;51.340;3.240;2022-12-19T00:31:57;4.30;99.90
13798;DHT22;6970;51.340;3.240;2022-12-19T00:34:24;4.40;99.90
13798;DHT22;6970;51.340;3.240;2022-12-19T00:36:51;4.40;99.90
13798;DHT22;6970;51.340;3.240;2022-12-19T00:39:18;4.40;99.90
13798;DHT22;6970;51.340;3.240;2022-12-19T00:41:45;4.50;99.90
13798;DHT22;6970;51.340;3.240;2022-12-19T00:44:13;4.50;99.90
13798;DHT22;6970;51.340;3.240;2022-12-19T00:46:41;4.50;99.90
13798;DHT22;6970;51.340;3.240;2022-12-19T00:49:08;4.50;99.90
13798;DHT22;6970;51.340;3.240;2022-12-19T00:51:35;4.60;99.90
13798;DHT22;6970;51.340;3.240;2022-12-19T00:54:03;4.60;99.90
13798;DHT22;6970;51.340;3.240;2022-12-19T00:56:34;4.60;99.90
13798;DHT22;6970;51.340;3.240;2022-12-19T00:59:03;4.60;99.90
13798;DHT22;6970;51.340;3.240;2022-12-19T01:01:32;4.60;99.90
13798;DHT22;6970;51.340;3.240;2022-12-19T01:04:02;4.60;99.90
13798;DHT22;6970;51.340;3.240;2022-12-19T01:06:49;4.70;99.90
13798;DHT22;6970;51.340;3.240;2022-12-19T01:09:17;4.70;99.90
13798;DHT22;6970;51.340;3.240;2022-12-19T01:11:45;4.70;99.90
13798;DHT22;6970;51.340;3.240;2022-12-19T01:14:30;4.80;99.90
13798;DHT22;6970;51.340;3.240;2022-12-19T01:16:57;4.80;99.90
13798;DHT22;6970;51.340;3.240;2022-12-19T01:19:26;4.80;99.90
13798;DHT22;6970;51.340;3.240;2022-12-19T01:21:53;4.80;99.90
13798;DHT22;6970;51.340;3.240;2022-12-19T01:24:20;4.80;99.90
13798;DHT22;6970;51.340;3.240;2022-12-19T01:26:47;4.90;99.90
13798;DHT22;6970;51.340;3.240;2022-12-19T01:29:14;4.90;99.90
13798;DHT22;6970;51.340;3.240;2022-12-19T01:31:41;4.90;99.90
13798;DHT22;6970;51.340;3.240;2022-12-19T01:34:08;4.90;99.90
13798;DHT22;6970;51.340;3.240;2022-12-19T01:36:35;5.00;99.90
13798;DHT22;6970;51.340;3.240;2022-12-19T01:39:06;5.10;99.90
13798;DHT22;6970;51.340;3.240;2022-12-19T01:41:34;5.20;99.90
13798;DHT22;6970;51.340;3.240;2022-12-19T01:44:04;5.10;99.90
13798;DHT22;6970;51.340;3.240;2022-12-19T01:46:41;5.20;99.90
13798;DHT22;6970;51.340;3.240;2022-12-19T01:51:52;5.40;99.90
13798;DHT22;6970;51.340;3.240;2022-12-19T01:54:36;5.40;99.90
13798;DHT22;6970;51.340;3.240;2022-12-19T01:57:07;5.50;99.90
13798;DHT22;6970;51.340;3.240;2022-12-19T01:59:49;5.50;99.90
13798;DHT22;6970;51.340;3.240;2022-12-19T02:02:28;5.50;99.90
13798;DHT22;6970;51.340;3.240;2022-12-19T02:04:55;5.50;99.90
13798;DHT22;6970;51.340;3.240;2022-12-19T02:07:24;5.50;99.90
13798;DHT22;6970;51.340;3.240;2022-12-19T02:09:54;5.50;99.90
13798;DHT22;6970;51.340;3.240;2022-12-19T02:12:25;5.50;99.90
13798;DHT22;6970;51.340;3.240;2022-12-19T02:14:53;5.50;99.90
13798;DHT22;6970;51.340;3.240;2022-12-19T02:20:33;5.60;99.90
13798;DHT22;6970;51.340;3.240;2022-12-19T02:33:53;5.70;99.90
13798;DHT22;6970;51.340;3.240;2022-12-19T02:36:31;5.70;99.90
13798;DHT22;6970;51.340;3.240;2022-12-19T02:42:24;5.70;99.90
13798;DHT22;6970;51.340;3.240;2022-12-19T02:44:57;5.80;99.90
13798;DHT22;6970;51.340;3.240;2022-12-19T02:47:28;5.80;99.90
13798;DHT22;6970;51.340;3.240;2022-12-19T02:49:55;5.90;99.90
13798;DHT22;6970;51.340;3.240;2022-12-19T02:55:00;5.90;99.90
13798;DHT22;6970;51.340;3.240;2022-12-19T02:57:29;6.00;99.90
13798;DHT22;6970;51.340;3.240;2022-12-19T03:00:09;6.00;99.90
13798;DHT22;6970;51.340;3.240;2022-12-19T03:08:31;6.10;99.90
13798;DHT22;6970;51.340;3.240;2022-12-19T03:11:10;6.10;99.90
13798;DHT22;6970;51.340;3.240;2022-12-19T03:14:05;6.20;99.90
13798;DHT22;6970;51.340;3.240;2022-12-19T03:16:34;6.20;99.90
13798;DHT22;6970;51.340;3.240;2022-12-19T03:19:09;6.30;99.90
13798;DHT22;6970;51.340;3.240;2022-12-19T03:21:40;6.30;99.90
13798;DHT22;6970;51.340;3.240;2022-12-19T03:24:10;6.40;99.90
13798;DHT22;6970;51.340;3.240;2022-12-19T03:29:44;6.60;99.90
13798;DHT22;6970;51.340;3.240;2022-12-19T03:32:14;6.60;99.90
13798;DHT22;6970;51.340;3.240;2022-12-19T03:34:52;6.80;99.90
13798;DHT22;6970;51.340;3.240;2022-12-19T03:37:25;6.80;99.90
13798;DHT22;6970;51.340;3.240;2022-12-19T03:39:57;6.90;99.90
13798;DHT22;6970;51.340;3.240;2022-12-19T03:42:26;6.90;99.90
13798;DHT22;6970;51.340;3.240;2022-12-19T03:45:17;7.00;99.90
13798;DHT22;6970;51.340;3.240;2022-12-19T03:47:50;7.00;99.90
13798;DHT22;6970;51.340;3.240;2022-12-19T03:50:23;7.00;99.90
13798;DHT22;6970;51.340;3.240;2022-12-19T03:55:50;7.20;99.90
13798;DHT22;6970;51.340;3.240;2022-12-19T03:58:26;7.20;99.90
13798;DHT22;6970;51.340;3.240;2022-12-19T04:00:57;7.20;99.90
13798;DHT22;6970;51.340;3.240;2022-12-19T04:03:27;7.20;99.90
13798;DHT22;6970;51.340;3.240;2022-12-19T04:05:58;7.30;99.90
13798;DHT22;6970;51.340;3.240;2022-12-19T04:08:27;7.30;99.90
13798;DHT22;6970;51.340;3.240;2022-12-19T04:11:08;7.20;99.90
13798;DHT22;6970;51.340;3.240;2022-12-19T04:13:52;7.30;99.90
13798;DHT22;6970;51.340;3.240;2022-12-19T04:16:30;7.30;99.90
13798;DHT22;6970;51.340;3.240;2022-12-19T04:19:02;7.30;99.90
13798;DHT22;6970;51.340;3.240;2022-12-19T04:21:34;7.40;99.90
13798;DHT22;6970;51.340;3.240;2022-12-19T04:24:23;7.30;99.90
13798;DHT22;6970;51.340;3.240;2022-12-19T04:26:53;7.30;99.90
13798;DHT22;6970;51.340;3.240;2022-12-19T04:29:22;7.30;99.90
13798;DHT22;6970;51.340;3.240;2022-12-19T04:31:51;7.40;99.90
13798;DHT22;6970;51.340;3.240;2022-12-19T04:34:19;7.40;99.90
13798;DHT22;6970;51.340;3.240;2022-12-19T04:36:47;7.40;99.90
13798;DHT22;6970;51.340;3.240;2022-12-19T04:39:14;7.40;99.90
13798;DHT22;6970;51.340;3.240;2022-12-19T04:41:41;7.40;99.90
13798;DHT22;6970;51.340;3.240;2022-12-19T04:44:11;7.40;99.90
13798;DHT22;6970;51.340;3.240;2022-12-19T04:46:41;7.30;99.90
13798;DHT22;6970;51.340;3.240;2022-12-19T04:49:10;7.30;99.90
13798;DHT22;6970;51.340;3.240;2022-12-19T04:51:40;7.40;99.90
13798;DHT22;6970;51.340;3.240;2022-12-19T04:54:09;7.50;99.90
13798;DHT22;6970;51.340;3.240;2022-12-19T04:56:36;7.50;99.90
13798;DHT22;6970;51.340;3.240;2022-12-19T04:59:03;7.50;99.90
13798;DHT22;6970;51.340;3.240;2022-12-19T05:01:30;7.50;99.90
13798;DHT22;6970;51.340;3.240;2022-12-19T05:03:57;7.60;99.90
13798;DHT22;6970;51.340;3.240;2022-12-19T05:06:30;7.60;99.90
13798;DHT22;6970;51.340;3.240;2022-12-19T05:08:57;7.60;99.90
13798;DHT22;6970;51.340;3.240;2022-12-19T05:11:24;7.60;99.90
13798;DHT22;6970;51.340;3.240;2022-12-19T05:13:51;7.60;99.90
13798;DHT22;6970;51.340;3.240;2022-12-19T05:16:18;7.70;99.90
13798;DHT22;6970;51.340;3.240;2022-12-19T05:18:45;7.70;99.90
13798;DHT22;6970;51.340;3.240;2022-12-19T05:21:12;7.80;99.90
13798;DHT22;6970;51.340;3.240;2022-12-19T05:23:40;7.80;99.90
13798;DHT22;6970;51.340;3.240;2022-12-19T05:26:07;7.90;99.90
13798;DHT22;6970;51.340;3.240;2022-12-19T05:28:34;7.90;99.90
13798;DHT22;6970;51.340;3.240;2022-12-19T05:31:16;8.00;99.90
13798;DHT22;6970;51.340;3.240;2022-12-19T05:33:43;8.10;99.90
13798;DHT22;6970;51.340;3.240;2022-12-19T05:36:14;8.20;99.90
13798;DHT22;6970;51.340;3.240;2022-12-19T05:38:41;8.20;99.90
13798;DHT22;6970;51.340;3.240;2022-12-19T05:41:10;8.20;99.90
13798;DHT22;6970;51.340;3.240;2022-12-19T05:43:37;8.20;99.90
13798;DHT22;6970;51.340;3.240;2022-12-19T05:46:05;8.30;99.90
13798;DHT22;6970;51.340;3.240;2022-12-19T05:48:34;8.20;99.90
13798;DHT22;6970;51.340;3.240;2022-12-19T05:51:01;8.30;99.90
13798;DHT22;6970;51.340;3.240;2022-12-19T05:53:29;8.20;99.90
13798;DHT22;6970;51.340;3.240;2022-12-19T05:56:05;8.20;99.90
13798;DHT22;6970;51.340;3.240;2022-12-19T05:58:35;8.20;99.90
13798;DHT22;6970;51.340;3.240;2022-12-19T06:01:29;8.20;99.90
13798;DHT22;6970;51.340;3.240;2022-12-19T06:03:58;8.20;99.90
13798;DHT22;6970;51.340;3.240;2022-12-19T06:06:25;8.20;99.90
13798;DHT22;6970;51.340;3.240;2022-12-19T06:08:54;8.20;99.90
13798;DHT22;6970;51.340;3.240;2022-12-19T06:11:21;8.20;99.90
13798;DHT22;6970;51.340;3.240;2022-12-19T06:13:49;8.20;99.90
13798;DHT22;6970;51.340;3.240;2022-12-19T06:16:17;8.10;99.90
13798;DHT22;6970;51.340;3.240;2022-12-19T06:18:45;8.10;99.90
13798;DHT22;6970;51.340;3.240;2022-12-19T06:21:20;8.10;99.90
13798;DHT22;6970;51.340;3.240;2022-12-19T06:23:51;8.10;99.90
13798;DHT22;6970;51.340;3.240;2022-12-19T06:26:21;8.10;99.90
13798;DHT22;6970;51.340;3.240;2022-12-19T06:28:55;8.10;99.90
13798;DHT22;6970;51.340;3.240;2022-12-19T06:31:25;8.10;99.90
13798;DHT22;6970;51.340;3.240;2022-12-19T06:33:55;8.20;99.90
13798;DHT22;6970;51.340;3.240;2022-12-19T06:36:26;8.20;99.90
13798;DHT22;6970;51.340;3.240;2022-12-19T06:38:57;8.20;99.90
13798;DHT22;6970;51.340;3.240;2022-12-19T06:41:27;8.20;99.90
13798;DHT22;6970;51.340;3.240;2022-12-19T06:44:15;8.20;99.90
13798;DHT22;6970;51.340;3.240;2022-12-19T06:46:44;8.20;99.90
13798;DHT22;6970;51.340;3.240;2022-12-19T06:49:11;8.20;99.90
13798;DHT22;6970;51.340;3.240;2022-12-19T06:51:38;8.20;99.90
13798;DHT22;6970;51.340;3.240;2022-12-19T06:54:05;8.20;99.90
13798;DHT22;6970;51.340;3.240;2022-12-19T06:56:36;8.20;99.90
13798;DHT22;6970;51.340;3.240;2022-12-19T06:59:04;8.20;99.90
13798;DHT22;6970;51.340;3.240;2022-12-19T07:01:52;8.20;99.90
13798;DHT22;6970;51.340;3.240;2022-12-19T07:04:33;8.20;99.90
13798;DHT22;6970;51.340;3.240;2022-12-19T07:07:02;8.20;99.90
13798;DHT22;6970;51.340;3.240;2022-12-19T07:09:29;8.20;99.90
13798;DHT22;6970;51.340;3.240;2022-12-19T07:11:56;8.20;99.90
13798;DHT22;6970;51.340;3.240;2022-12-19T07:14:23;8.20;99.90
13798;DHT22;6970;51.340;3.240;2022-12-19T07:16:52;8.30;99.90
13798;DHT22;6970;51.340;3.240;2022-12-19T07:19:21;8.40;99.90
13798;DHT22;6970;51.340;3.240;2022-12-19T07:21:48;8.40;99.90
13798;DHT22;6970;51.340;3.240;2022-12-19T07:24:15;8.40;99.90
13798;DHT22;6970;51.340;3.240;2022-12-19T07:26:43;8.40;99.90
13798;DHT22;6970;51.340;3.240;2022-12-19T07:29:11;8.40;99.90
13798;DHT22;6970;51.340;3.240;2022-12-19T07:31:39;8.40;99.90
13798;DHT22;6970;51.340;3.240;2022-12-19T07:34:06;8.40;99.90
13798;DHT22;6970;51.340;3.240;2022-12-19T07:36:33;8.40;99.90
13798;DHT22;6970;51.340;3.240;2022-12-19T07:39:00;8.50;99.90
13798;DHT22;6970;51.340;3.240;2022-12-19T07:41:27;8.50;99.90
13798;DHT22;6970;51.340;3.240;2022-12-19T07:43:54;8.50;99.90
13798;DHT22;6970;51.340;3.240;2022-12-19T07:46:21;8.50;99.90
13798;DHT22;6970;51.340;3.240;2022-12-19T07:48:48;8.50;99.90
13798;DHT22;6970;51.340;3.240;2022-12-19T07:51:16;8.50;99.90
13798;DHT22;6970;51.340;3.240;2022-12-19T07:53:43;8.50;99.90
13798;DHT22;6970;51.340;3.240;2022-12-19T07:56:10;8.60;99.90
13798;DHT22;6970;51.340;3.240;2022-12-19T07:58:37;8.60;99.90
13798;DHT22;6970;51.340;3.240;2022-12-19T08:01:04;8.60;99.90
13798;DHT22;6970;51.340;3.240;2022-12-19T08:03:35;8.60;99.90
13798;DHT22;6970;51.340;3.240;2022-12-19T08:06:05;8.70;99.90
13798;DHT22;6970;51.340;3.240;2022-12-19T08:08:35;8.70;99.90
13798;DHT22;6970;51.340;3.240;2022-12-19T08:11:08;8.80;99.90
13798;DHT22;6970;51.340;3.240;2022-12-19T08:13:38;8.80;99.90
13798;DHT22;6970;51.340;3.240;2022-12-19T08:16:14;8.80;99.90
13798;DHT22;6970;51.340;3.240;2022-12-19T08:18:42;8.80;99.90
13798;DHT22;6970;51.340;3.240;2022-12-19T08:21:11;8.90;99.90
13798;DHT22;6970;51.340;3.240;2022-12-19T08:23:39;8.90;99.90
13798;DHT22;6970;51.340;3.240;2022-12-19T08:26:11;8.90;99.90
13798;DHT22;6970;51.340;3.240;2022-12-19T08:28:41;8.90;99.90
13798;DHT22;6970;51.340;3.240;2022-12-19T08:31:14;8.90;99.90
13798;DHT22;6970;51.340;3.240;2022-12-19T08:33:45;8.90;99.90
13798;DHT22;6970;51.340;3.240;2022-12-19T08:36:15;8.90;99.90
13798;DHT22;6970;51.340;3.240;2022-12-19T08:38:47;8.90;99.90
13798;DHT22;6970;51.340;3.240;2022-12-19T08:41:17;8.90;99.90
13798;DHT22;6970;51.340;3.240;2022-12-19T08:43:51;8.90;99.90
13798;DHT22;6970;51.340;3.240;2022-12-19T08:46:21;8.90;99.90
13798;DHT22;6970;51.340;3.240;2022-12-19T08:48:50;9.00;99.90
13798;DHT22;6970;51.340;3.240;2022-12-19T08:51:20;9.00;99.90
13798;DHT22;6970;51.340;3.240;2022-12-19T08:53:48;9.00;99.90
13798;DHT22;6970;51.340;3.240;2022-12-19T08:56:21;9.00;99.90
13798;DHT22;6970;51.340;3.240;2022-12-19T08:58:50;9.00;99.90
13798;DHT22;6970;51.340;3.240;2022-12-19T09:01:21;9.00;99.90
13798;DHT22;6970;51.340;3.240;2022-12-19T09:03:51;9.00;99.90
13798;DHT22;6970;51.340;3.240;2022-12-19T09:06:39;9.10;99.90
13798;DHT22;6970;51.340;3.240;2022-12-19T09:09:06;9.10;99.90
13798;DHT22;6970;51.340;3.240;2022-12-19T09:11:35;9.10;99.90
13798;DHT22;6970;51.340;3.240;2022-12-19T09:14:13;9.10;99.90
13798;DHT22;6970;51.340;3.240;2022-12-19T09:16:49;9.20;99.90
13798;DHT22;6970;51.340;3.240;2022-12-19T09:19:19;9.20;99.90
13798;DHT22;6970;51.340;3.240;2022-12-19T09:21:48;9.30;99.90
13798;DHT22;6970;51.340;3.240;2022-12-19T09:24:15;9.30;99.90
13798;DHT22;6970;51.340;3.240;2022-12-19T09:26:42;9.30;99.90
13798;DHT22;6970;51.340;3.240;2022-12-19T09:29:10;9.40;99.90
13798;DHT22;6970;51.340;3.240;2022-12-19T09:31:47;9.40;99.90
13798;DHT22;6970;51.340;3.240;2022-12-19T09:34:26;9.40;99.90
13798;DHT22;6970;51.340;3.240;2022-12-19T09:37:09;9.40;99.90
13798;DHT22;6970;51.340;3.240;2022-12-19T09:39:45;9.40;99.90
13798;DHT22;6970;51.340;3.240;2022-12-19T09:42:55;9.40;99.90
13798;DHT22;6970;51.340;3.240;2022-12-19T09:45:50;9.40;99.90
13798;DHT22;6970;51.340;3.240;2022-12-19T09:48:23;9.40;99.90
13798;DHT22;6970;51.340;3.240;2022-12-19T09:51:04;9.40;99.90
13798;DHT22;6970;51.340;3.240;2022-12-19T09:54:08;9.40;99.90
13798;DHT22;6970;51.340;3.240;2022-12-19T09:56:39;9.30;99.90
13798;DHT22;6970;51.340;3.240;2022-12-19T09:59:22;9.30;99.90
13798;DHT22;6970;51.340;3.240;2022-12-19T10:05:09;9.30;99.90
13798;DHT22;6970;51.340;3.240;2022-12-19T10:08:26;9.20;99.90
13798;DHT22;6970;51.340;3.240;2022-12-19T10:11:06;9.20;99.90
13798;DHT22;6970;51.340;3.240;2022-12-19T10:14:17;9.20;99.90
13798;DHT22;6970;51.340;3.240;2022-12-19T10:22:55;9.20;99.90
13798;DHT22;6970;51.340;3.240;2022-12-19T10:25:39;9.20;99.90
13798;DHT22;6970;51.340;3.240;2022-12-19T10:31:15;9.20;99.90
13798;DHT22;6970;51.340;3.240;2022-12-19T10:34:05;9.20;99.90
13798;DHT22;6970;51.340;3.240;2022-12-19T10:36:42;9.20;99.90
13798;DHT22;6970;51.340;3.240;2022-12-19T10:39:34;9.20;99.90
13798;DHT22;6970;51.340;3.240;2022-12-19T10:42:32;9.20;99.90
13798;DHT22;6970;51.340;3.240;2022-12-19T10:45:11;9.10;99.90
13798;DHT22;6970;51.340;3.240;2022-12-19T10:47:43;9.10;99.90
13798;DHT22;6970;51.340;3.240;2022-12-19T10:50:16;9.10;99.90
13798;DHT22;6970;51.340;3.240;2022-12-19T10:55:47;9.10;99.90
13798;DHT22;6970;51.340;3.240;2022-12-19T11:03:50;9.00;99.90
13798;DHT22;6970;51.340;3.240;2022-12-19T11:06:42;9.10;99.90
13798;DHT22;6970;51.340;3.240;2022-12-19T11:09:25;9.00;99.90
13798;DHT22;6970;51.340;3.240;2022-12-19T11:12:10;9.10;99.90
13798;DHT22;6970;51.340;3.240;2022-12-19T11:18:12;9.10;99.90
13798;DHT22;6970;51.340;3.240;2022-12-19T11:21:13;9.10;99.90
13798;DHT22;6970;51.340;3.240;2022-12-19T11:24:11;9.20;99.90
13798;DHT22;6970;51.340;3.240;2022-12-19T11:30:25;9.30;99.90
13798;DHT22;6970;51.340;3.240;2022-12-19T11:33:17;9.30;99.90
13798;DHT22;6970;51.340;3.240;2022-12-19T11:35:55;9.30;99.90
13798;DHT22;6970;51.340;3.240;2022-12-19T11:38:44;9.40;99.90
13798;DHT22;6970;51.340;3.240;2022-12-19T11:44:07;9.40;99.90
13798;DHT22;6970;51.340;3.240;2022-12-19T11:49:41;9.50;99.90
13798;DHT22;6970;51.340;3.240;2022-12-19T11:55:48;9.50;99.90
13798;DHT22;6970;51.340;3.240;2022-12-19T11:58:19;9.60;99.90
13798;DHT22;6970;51.340;3.240;2022-12-19T12:06:37;9.50;99.90
13798;DHT22;6970;51.340;3.240;2022-12-19T12:09:31;9.50;99.90
13798;DHT22;6970;51.340;3.240;2022-12-19T12:16:26;9.60;99.90
13798;DHT22;6970;51.340;3.240;2022-12-19T12:29:00;9.60;99.90
13798;DHT22;6970;51.340;3.240;2022-12-19T12:32:17;9.60;99.90
13798;DHT22;6970;51.340;3.240;2022-12-19T12:35:39;9.60;99.90
13798;DHT22;6970;51.340;3.240;2022-12-19T12:44:36;9.60;99.90
13798;DHT22;6970;51.340;3.240;2022-12-19T12:47:18;9.60;99.90
13798;DHT22;6970;51.340;3.240;2022-12-19T12:49:55;9.60;99.90
13798;DHT22;6970;51.340;3.240;2022-12-19T12:55:36;9.70;99.90
13798;DHT22;6970;51.340;3.240;2022-12-19T13:09:37;9.90;99.90
13798;DHT22;6970;51.340;3.240;2022-12-19T13:12:33;10.00;99.90
13798;DHT22;6970;51.340;3.240;2022-12-19T13:30:29;10.20;99.90
13798;DHT22;6970;51.340;3.240;2022-12-19T13:33:19;10.20;99.90
13798;DHT22;6970;51.340;3.240;2022-12-19T13:35:52;10.20;99.90
13798;DHT22;6970;51.340;3.240;2022-12-19T13:38:47;10.10;99.90
13798;DHT22;6970;51.340;3.240;2022-12-19T13:41:44;10.10;99.90
13798;DHT22;6970;51.340;3.240;2022-12-19T13:44:39;10.10;99.90
13798;DHT22;6970;51.340;3.240;2022-12-19T13:47:13;10.10;99.90
13798;DHT22;6970;51.340;3.240;2022-12-19T13:49:47;10.00;99.90
13798;DHT22;6970;51.340;3.240;2022-12-19T13:52:16;10.00;99.90
13798;DHT22;6970;51.340;3.240;2022-12-19T13:54:49;10.00;99.90
13798;DHT22;6970;51.340;3.240;2022-12-19T13:57:30;10.00;99.90
13798;DHT22;6970;51.340;3.240;2022-12-19T14:00:15;10.00;99.90
13798;DHT22;6970;51.340;3.240;2022-12-19T14:02:55;10.00;99.90
13798;DHT22;6970;51.340;3.240;2022-12-19T14:05:28;10.00;99.90
13798;DHT22;6970;51.340;3.240;2022-12-19T14:08:21;10.00;99.90
13798;DHT22;6970;51.340;3.240;2022-12-19T14:10:50;10.00;99.90
13798;DHT22;6970;51.340;3.240;2022-12-19T14:14:00;10.00;99.90
13798;DHT22;6970;51.340;3.240;2022-12-19T14:16:55;10.00;99.90
13798;DHT22;6970;51.340;3.240;2022-12-19T14:19:39;10.00;99.90
13798;DHT22;6970;51.340;3.240;2022-12-19T14:25:00;10.00;99.90
13798;DHT22;6970;51.340;3.240;2022-12-19T14:28:10;10.10;99.90
13798;DHT22;6970;51.340;3.240;2022-12-19T14:30:58;10.10;99.90
13798;DHT22;6970;51.340;3.240;2022-12-19T14:33:35;10.10;99.90
13798;DHT22;6970;51.340;3.240;2022-12-19T14:36:24;10.10;99.90
13798;DHT22;6970;51.340;3.240;2022-12-19T14:38:55;10.20;99.90
13798;DHT22;6970;51.340;3.240;2022-12-19T14:41:44;10.30;99.90
13798;DHT22;6970;51.340;3.240;2022-12-19T14:44:49;10.40;99.90
13798;DHT22;6970;51.340;3.240;2022-12-19T14:47:40;10.40;99.90
13798;DHT22;6970;51.340;3.240;2022-12-19T14:50:36;10.40;99.90
13798;DHT22;6970;51.340;3.240;2022-12-19T14:53:27;10.40;99.90
13798;DHT22;6970;51.340;3.240;2022-12-19T14:56:18;10.30;99.90
13798;DHT22;6970;51.340;3.240;2022-12-19T15:05:03;10.30;99.90
13798;DHT22;6970;51.340;3.240;2022-12-19T15:07:31;10.30;99.90
13798;DHT22;6970;51.340;3.240;2022-12-19T15:13:23;10.20;99.90
13798;DHT22;6970;51.340;3.240;2022-12-19T15:16:31;10.30;99.90
13798;DHT22;6970;51.340;3.240;2022-12-19T15:19:06;10.20;99.90
13798;DHT22;6970;51.340;3.240;2022-12-19T15:21:39;10.10;99.90
13798;DHT22;6970;51.340;3.240;2022-12-19T15:24:08;10.10;99.90
13798;DHT22;6970;51.340;3.240;2022-12-19T15:26:45;10.10;99.90
13798;DHT22;6970;51.340;3.240;2022-12-19T15:29:15;10.00;99.90
13798;DHT22;6970;51.340;3.240;2022-12-19T15:31:53;10.00;99.90
13798;DHT22;6970;51.340;3.240;2022-12-19T15:34:31;10.00;99.90
13798;DHT22;6970;51.340;3.240;2022-12-19T15:37:11;10.00;99.90
13798;DHT22;6970;51.340;3.240;2022-12-19T15:39:40;10.00;99.90
13798;DHT22;6970;51.340;3.240;2022-12-19T15:42:21;10.00;99.90
13798;DHT22;6970;51.340;3.240;2022-12-19T15:44:51;10.00;99.90
13798;DHT22;6970;51.340;3.240;2022-12-19T15:47:36;9.90;99.90
13798;DHT22;6970;51.340;3.240;2022-12-19T15:50:19;9.90;99.90
13798;DHT22;6970;51.340;3.240;2022-12-19T15:52:46;9.90;99.90
13798;DHT22;6970;51.340;3.240;2022-12-19T15:55:18;9.90;99.90
13798;DHT22;6970;51.340;3.240;2022-12-19T15:57:51;9.90;99.90
13798;DHT22;6970;51.340;3.240;2022-12-19T16:00:21;9.80;99.90
13798;DHT22;6970;51.340;3.240;2022-12-19T16:02:50;9.80;99.90
13798;DHT22;6970;51.340;3.240;2022-12-19T16:05:39;9.80;99.90
13798;DHT22;6970;51.340;3.240;2022-12-19T16:08:17;9.80;99.90
13798;DHT22;6970;51.340;3.240;2022-12-19T16:10:48;9.80;99.90
13798;DHT22;6970;51.340;3.240;2022-12-19T16:13:29;9.80;99.90
13798;DHT22;6970;51.340;3.240;2022-12-19T16:15:57;9.80;99.90
13798;DHT22;6970;51.340;3.240;2022-12-19T16:18:26;9.80;99.90
13798;DHT22;6970;51.340;3.240;2022-12-19T16:20:54;9.80;99.90
13798;DHT22;6970;51.340;3.240;2022-12-19T16:23:22;9.80;99.90
13798;DHT22;6970;51.340;3.240;2022-12-19T16:25:51;9.80;99.90
13798;DHT22;6970;51.340;3.240;2022-12-19T16:28:29;9.80;99.90
13798;DHT22;6970;51.340;3.240;2022-12-19T16:30:58;9.70;99.90
13798;DHT22;6970;51.340;3.240;2022-12-19T16:33:28;9.80;99.90
13798;DHT22;6970;51.340;3.240;2022-12-19T16:35:56;9.80;99.90
13798;DHT22;6970;51.340;3.240;2022-12-19T16:38:34;9.80;99.90
13798;DHT22;6970;51.340;3.240;2022-12-19T16:41:01;9.90;99.90
13798;DHT22;6970;51.340;3.240;2022-12-19T16:43:39;9.90;99.90
13798;DHT22;6970;51.340;3.240;2022-12-19T16:46:18;9.90;99.90
13798;DHT22;6970;51.340;3.240;2022-12-19T16:48:47;9.90;99.90
13798;DHT22;6970;51.340;3.240;2022-12-19T16:51:20;9.90;99.90
13798;DHT22;6970;51.340;3.240;2022-12-19T16:53:51;9.90;99.90
13798;DHT22;6970;51.340;3.240;2022-12-19T16:56:38;10.00;99.90
13798;DHT22;6970;51.340;3.240;2022-12-19T16:59:44;10.00;99.90
13798;DHT22;6970;51.340;3.240;2022-12-19T17:02:42;10.00;99.90
13798;DHT22;6970;51.340;3.240;2022-12-19T17:05:22;10.10;99.90
13798;DHT22;6970;51.340;3.240;2022-12-19T17:07:50;10.10;99.90
13798;DHT22;6970;51.340;3.240;2022-12-19T17:10:19;10.10;99.90
13798;DHT22;6970;51.340;3.240;2022-12-19T17:12:55;10.00;99.90
13798;DHT22;6970;51.340;3.240;2022-12-19T17:15:26;10.00;99.90
13798;DHT22;6970;51.340;3.240;2022-12-19T17:17:59;10.00;99.90
13798;DHT22;6970;51.340;3.240;2022-12-19T17:20:34;10.00;99.90
13798;DHT22;6970;51.340;3.240;2022-12-19T17:23:15;10.00;99.90
13798;DHT22;6970;51.340;3.240;2022-12-19T17:25:44;10.00;99.90
13798;DHT22;6970;51.340;3.240;2022-12-19T17:28:12;10.00;99.90
13798;DHT22;6970;51.340;3.240;2022-12-19T17:30:44;10.00;99.90
13798;DHT22;6970;51.340;3.240;2022-12-19T17:33:15;10.00;99.90
13798;DHT22;6970;51.340;3.240;2022-12-19T17:35:43;10.00;99.90
13798;DHT22;6970;51.340;3.240;2022-12-19T17:38:15;10.00;99.90
13798;DHT22;6970;51.340;3.240;2022-12-19T17:40:43;10.00;99.90
13798;DHT22;6970;51.340;3.240;2022-12-19T17:43:13;9.90;99.90
13798;DHT22;6970;51.340;3.240;2022-12-19T17:45:41;10.00;99.90
13798;DHT22;6970;51.340;3.240;2022-12-19T17:48:26;10.00;99.90
13798;DHT22;6970;51.340;3.240;2022-12-19T17:50:55;10.00;99.90
13798;DHT22;6970;51.340;3.240;2022-12-19T17:53:25;10.00;99.90
13798;DHT22;6970;51.340;3.240;2022-12-19T17:55:53;10.00;99.90
13798;DHT22;6970;51.340;3.240;2022-12-19T17:58:21;10.00;99.90
13798;DHT22;6970;51.340;3.240;2022-12-19T18:00:49;10.00;99.90
13798;DHT22;6970;51.340;3.240;2022-12-19T18:03:22;10.00;99.90
13798;DHT22;6970;51.340;3.240;2022-12-19T18:05:53;10.00;99.90
13798;DHT22;6970;51.340;3.240;2022-12-19T18:08:30;10.00;99.90
13798;DHT22;6970;51.340;3.240;2022-12-19T18:11:00;9.90;99.90
13798;DHT22;6970;51.340;3.240;2022-12-19T18:13:30;10.00;99.90
13798;DHT22;6970;51.340;3.240;2022-12-19T18:16:02;10.00;99.90
13798;DHT22;6970;51.340;3.240;2022-12-19T18:18:33;10.00;99.90
13798;DHT22;6970;51.340;3.240;2022-12-19T18:21:04;10.10;99.90
13798;DHT22;6970;51.340;3.240;2022-12-19T18:23:32;10.10;99.90
13798;DHT22;6970;51.340;3.240;2022-12-19T18:26:00;10.10;99.90
13798;DHT22;6970;51.340;3.240;2022-12-19T18:28:29;10.00;99.90
13798;DHT22;6970;51.340;3.240;2022-12-19T18:31:02;10.10;99.90
13798;DHT22;6970;51.340;3.240;2022-12-19T18:33:37;10.10;99.90
13798;DHT22;6970;51.340;3.240;2022-12-19T18:36:12;10.10;99.90
13798;DHT22;6970;51.340;3.240;2022-12-19T18:38:42;10.10;99.90
13798;DHT22;6970;51.340;3.240;2022-12-19T18:41:10;10.10;99.90
13798;DHT22;6970;51.340;3.240;2022-12-19T18:43:39;10.00;99.90
13798;DHT22;6970;51.340;3.240;2022-12-19T18:46:12;10.00;99.90
13798;DHT22;6970;51.340;3.240;2022-12-19T18:48:43;10.00;99.90
13798;DHT22;6970;51.340;3.240;2022-12-19T18:51:16;10.00;99.90
13798;DHT22;6970;51.340;3.240;2022-12-19T18:53:46;10.00;99.90
13798;DHT22;6970;51.340;3.240;2022-12-19T18:56:14;10.00;99.90
13798;DHT22;6970;51.340;3.240;2022-12-19T18:58:41;10.00;99.90
13798;DHT22;6970;51.340;3.240;2022-12-19T19:01:15;10.00;99.90